sensor_id;sensor_type;location;lat;lon;timestamp;P1;durP1;ratioP1;P2;durP2;ratioP2
73428;SDS011;61643;49.564;17.412;2023-09-08T00:02:27;7.43;;;5.15;;
73428;SDS011;61643;49.564;17.412;2023-09-08T00:04:53;11.68;;;5.80;;
73428;SDS011;61643;49.564;17.412;2023-09-08T00:07:19;8.82;;;4.90;;
73428;SDS011;61643;49.564;17.412;2023-09-08T00:09:46;9.35;;;5.65;;
73428;SDS011;61643;49.564;17.412;2023-09-08T00:12:12;7.82;;;5.25;;
73428;SDS011;61643;49.564;17.412;2023-09-08T00:14:38;7.80;;;5.57;;
73428;SDS011;61643;49.564;17.412;2023-09-08T00:17:04;8.15;;;5.25;;
73428;SDS011;61643;49.564;17.412;2023-09-08T00:19:30;12.00;;;5.60;;
73428;SDS011;61643;49.564;17.412;2023-09-08T00:21:56;6.95;;;4.82;;
73428;SDS011;61643;49.564;17.412;2023-09-08T00:24:22;10.52;;;5.05;;
73428;SDS011;61643;49.564;17.412;2023-09-08T00:26:48;8.48;;;5.70;;
73428;SDS011;61643;49.564;17.412;2023-09-08T00:29:14;9.77;;;5.72;;
73428;SDS011;61643;49.564;17.412;2023-09-08T00:31:41;9.45;;;5.50;;
73428;SDS011;61643;49.564;17.412;2023-09-08T00:34:07;9.18;;;5.93;;
73428;SDS011;61643;49.564;17.412;2023-09-08T00:36:33;8.02;;;5.25;;
73428;SDS011;61643;49.564;17.412;2023-09-08T00:38:59;9.20;;;5.60;;
73428;SDS011;61643;49.564;17.412;2023-09-08T00:41:25;8.13;;;5.50;;
73428;SDS011;61643;49.564;17.412;2023-09-08T00:43:51;8.05;;;5.60;;
73428;SDS011;61643;49.564;17.412;2023-09-08T00:46:17;8.60;;;5.40;;
73428;SDS011;61643;49.564;17.412;2023-09-08T00:48:43;9.63;;;5.60;;
73428;SDS011;61643;49.564;17.412;2023-09-08T00:51:09;9.93;;;5.90;;
73428;SDS011;61643;49.564;17.412;2023-09-08T00:53:36;11.82;;;5.50;;
73428;SDS011;61643;49.564;17.412;2023-09-08T00:56:02;8.02;;;5.20;;
73428;SDS011;61643;49.564;17.412;2023-09-08T00:58:29;8.98;;;5.30;;
73428;SDS011;61643;49.564;17.412;2023-09-08T01:00:55;6.68;;;4.93;;
73428;SDS011;61643;49.564;17.412;2023-09-08T01:03:24;7.97;;;5.30;;
73428;SDS011;61643;49.564;17.412;2023-09-08T01:05:50;9.07;;;5.55;;
73428;SDS011;61643;49.564;17.412;2023-09-08T01:08:17;9.27;;;5.57;;
73428;SDS011;61643;49.564;17.412;2023-09-08T01:10:45;7.55;;;5.43;;
73428;SDS011;61643;49.564;17.412;2023-09-08T01:13:11;7.82;;;5.15;;
73428;SDS011;61643;49.564;17.412;2023-09-08T01:15:37;9.65;;;5.78;;
73428;SDS011;61643;49.564;17.412;2023-09-08T01:18:03;7.93;;;5.10;;
73428;SDS011;61643;49.564;17.412;2023-09-08T01:23:22;10.35;;;5.88;;
73428;SDS011;61643;49.564;17.412;2023-09-08T01:25:58;8.55;;;5.65;;
73428;SDS011;61643;49.564;17.412;2023-09-08T01:28:29;7.32;;;5.07;;
73428;SDS011;61643;49.564;17.412;2023-09-08T01:30:58;8.43;;;5.63;;
73428;SDS011;61643;49.564;17.412;2023-09-08T01:33:24;8.15;;;5.50;;
73428;SDS011;61643;49.564;17.412;2023-09-08T01:35:50;9.43;;;5.90;;
73428;SDS011;61643;49.564;17.412;2023-09-08T01:38:16;8.52;;;5.35;;
73428;SDS011;61643;49.564;17.412;2023-09-08T01:40:42;8.63;;;5.63;;
73428;SDS011;61643;49.564;17.412;2023-09-08T01:43:08;10.52;;;5.43;;
73428;SDS011;61643;49.564;17.412;2023-09-08T01:45:34;9.43;;;5.50;;
73428;SDS011;61643;49.564;17.412;2023-09-08T01:48:00;10.50;;;5.53;;
73428;SDS011;61643;49.564;17.412;2023-09-08T01:50:26;9.75;;;5.45;;
73428;SDS011;61643;49.564;17.412;2023-09-08T01:52:52;9.82;;;5.93;;
73428;SDS011;61643;49.564;17.412;2023-09-08T01:55:18;8.25;;;5.60;;
73428;SDS011;61643;49.564;17.412;2023-09-08T01:57:44;8.02;;;5.20;;
73428;SDS011;61643;49.564;17.412;2023-09-08T02:00:12;8.27;;;5.15;;
73428;SDS011;61643;49.564;17.412;2023-09-08T02:02:38;8.55;;;5.32;;
73428;SDS011;61643;49.564;17.412;2023-09-08T02:05:05;7.95;;;5.50;;
73428;SDS011;61643;49.564;17.412;2023-09-08T02:07:31;9.07;;;5.32;;
73428;SDS011;61643;49.564;17.412;2023-09-08T02:09:57;9.02;;;5.22;;
73428;SDS011;61643;49.564;17.412;2023-09-08T02:12:23;8.35;;;5.07;;
73428;SDS011;61643;49.564;17.412;2023-09-08T02:14:49;10.35;;;5.75;;
73428;SDS011;61643;49.564;17.412;2023-09-08T02:19:43;8.70;;;5.22;;
73428;SDS011;61643;49.564;17.412;2023-09-08T02:22:09;8.00;;;5.35;;
73428;SDS011;61643;49.564;17.412;2023-09-08T02:24:35;9.02;;;5.47;;
73428;SDS011;61643;49.564;17.412;2023-09-08T02:27:01;10.15;;;5.38;;
73428;SDS011;61643;49.564;17.412;2023-09-08T02:29:27;8.45;;;5.47;;
73428;SDS011;61643;49.564;17.412;2023-09-08T02:31:53;10.18;;;5.63;;
73428;SDS011;61643;49.564;17.412;2023-09-08T02:34:19;7.47;;;5.18;;
73428;SDS011;61643;49.564;17.412;2023-09-08T02:36:45;7.38;;;5.20;;
73428;SDS011;61643;49.564;17.412;2023-09-08T02:39:13;9.23;;;5.70;;
73428;SDS011;61643;49.564;17.412;2023-09-08T02:41:39;8.32;;;5.40;;
73428;SDS011;61643;49.564;17.412;2023-09-08T02:44:05;7.95;;;5.63;;
73428;SDS011;61643;49.564;17.412;2023-09-08T02:46:31;7.65;;;5.45;;
73428;SDS011;61643;49.564;17.412;2023-09-08T02:48:57;7.47;;;5.45;;
73428;SDS011;61643;49.564;17.412;2023-09-08T02:51:23;8.93;;;5.07;;
73428;SDS011;61643;49.564;17.412;2023-09-08T02:53:49;9.00;;;6.25;;
73428;SDS011;61643;49.564;17.412;2023-09-08T02:56:14;8.95;;;5.88;;
73428;SDS011;61643;49.564;17.412;2023-09-08T02:58:40;9.07;;;5.53;;
73428;SDS011;61643;49.564;17.412;2023-09-08T03:01:10;8.35;;;5.43;;
73428;SDS011;61643;49.564;17.412;2023-09-08T03:03:39;9.10;;;5.68;;
73428;SDS011;61643;49.564;17.412;2023-09-08T03:06:05;9.23;;;5.90;;
73428;SDS011;61643;49.564;17.412;2023-09-08T03:08:31;9.05;;;5.60;;
73428;SDS011;61643;49.564;17.412;2023-09-08T03:10:58;6.15;;;4.97;;
73428;SDS011;61643;49.564;17.412;2023-09-08T03:13:25;8.95;;;5.85;;
73428;SDS011;61643;49.564;17.412;2023-09-08T03:15:52;8.90;;;5.63;;
73428;SDS011;61643;49.564;17.412;2023-09-08T03:18:18;8.75;;;5.70;;
73428;SDS011;61643;49.564;17.412;2023-09-08T03:20:47;8.20;;;6.00;;
73428;SDS011;61643;49.564;17.412;2023-09-08T03:23:16;10.68;;;6.35;;
73428;SDS011;61643;49.564;17.412;2023-09-08T03:25:43;9.68;;;6.07;;
73428;SDS011;61643;49.564;17.412;2023-09-08T03:28:09;10.95;;;6.00;;
73428;SDS011;61643;49.564;17.412;2023-09-08T03:30:35;10.20;;;5.50;;
73428;SDS011;61643;49.564;17.412;2023-09-08T03:33:01;8.88;;;5.78;;
73428;SDS011;61643;49.564;17.412;2023-09-08T03:35:27;9.15;;;5.82;;
73428;SDS011;61643;49.564;17.412;2023-09-08T03:37:53;12.30;;;5.60;;
73428;SDS011;61643;49.564;17.412;2023-09-08T03:40:19;8.85;;;5.78;;
73428;SDS011;61643;49.564;17.412;2023-09-08T03:42:45;8.55;;;5.88;;
73428;SDS011;61643;49.564;17.412;2023-09-08T03:45:10;10.90;;;5.88;;
73428;SDS011;61643;49.564;17.412;2023-09-08T03:47:36;9.80;;;5.60;;
73428;SDS011;61643;49.564;17.412;2023-09-08T03:50:03;9.52;;;5.57;;
73428;SDS011;61643;49.564;17.412;2023-09-08T03:52:29;8.73;;;6.00;;
73428;SDS011;61643;49.564;17.412;2023-09-08T03:54:55;8.98;;;6.53;;
73428;SDS011;61643;49.564;17.412;2023-09-08T03:57:21;10.23;;;5.57;;
73428;SDS011;61643;49.564;17.412;2023-09-08T03:59:47;10.32;;;5.80;;
73428;SDS011;61643;49.564;17.412;2023-09-08T04:02:13;8.95;;;5.88;;
73428;SDS011;61643;49.564;17.412;2023-09-08T04:04:39;8.05;;;5.43;;
73428;SDS011;61643;49.564;17.412;2023-09-08T04:07:05;9.40;;;5.82;;
73428;SDS011;61643;49.564;17.412;2023-09-08T04:09:30;9.80;;;5.68;;
73428;SDS011;61643;49.564;17.412;2023-09-08T04:11:57;8.18;;;5.35;;
73428;SDS011;61643;49.564;17.412;2023-09-08T04:14:23;8.65;;;5.63;;
73428;SDS011;61643;49.564;17.412;2023-09-08T04:16:52;10.75;;;5.90;;
73428;SDS011;61643;49.564;17.412;2023-09-08T04:19:18;11.68;;;5.68;;
73428;SDS011;61643;49.564;17.412;2023-09-08T04:21:44;8.50;;;5.43;;
73428;SDS011;61643;49.564;17.412;2023-09-08T04:24:10;7.72;;;5.45;;
73428;SDS011;61643;49.564;17.412;2023-09-08T04:26:37;9.45;;;5.80;;
73428;SDS011;61643;49.564;17.412;2023-09-08T04:29:03;9.25;;;5.40;;
73428;SDS011;61643;49.564;17.412;2023-09-08T04:31:29;8.07;;;5.88;;
73428;SDS011;61643;49.564;17.412;2023-09-08T04:33:55;11.38;;;6.35;;
73428;SDS011;61643;49.564;17.412;2023-09-08T04:36:20;9.77;;;6.00;;
73428;SDS011;61643;49.564;17.412;2023-09-08T04:38:46;9.02;;;5.63;;
73428;SDS011;61643;49.564;17.412;2023-09-08T04:41:12;7.82;;;5.28;;
73428;SDS011;61643;49.564;17.412;2023-09-08T04:43:38;10.35;;;5.25;;
73428;SDS011;61643;49.564;17.412;2023-09-08T04:46:04;8.13;;;5.50;;
73428;SDS011;61643;49.564;17.412;2023-09-08T04:48:30;7.80;;;5.57;;
73428;SDS011;61643;49.564;17.412;2023-09-08T04:50:57;6.93;;;5.30;;
73428;SDS011;61643;49.564;17.412;2023-09-08T04:53:23;11.38;;;5.93;;
73428;SDS011;61643;49.564;17.412;2023-09-08T04:55:48;9.45;;;5.50;;
73428;SDS011;61643;49.564;17.412;2023-09-08T04:58:14;10.18;;;5.90;;
73428;SDS011;61643;49.564;17.412;2023-09-08T05:00:41;8.02;;;5.00;;
73428;SDS011;61643;49.564;17.412;2023-09-08T05:03:08;11.80;;;6.13;;
73428;SDS011;61643;49.564;17.412;2023-09-08T05:05:34;9.25;;;6.10;;
73428;SDS011;61643;49.564;17.412;2023-09-08T05:08:00;11.98;;;5.95;;
73428;SDS011;61643;49.564;17.412;2023-09-08T05:10:26;9.80;;;6.18;;
73428;SDS011;61643;49.564;17.412;2023-09-08T05:12:52;9.85;;;6.00;;
73428;SDS011;61643;49.564;17.412;2023-09-08T05:15:18;9.07;;;6.10;;
73428;SDS011;61643;49.564;17.412;2023-09-08T05:17:46;11.88;;;6.40;;
73428;SDS011;61643;49.564;17.412;2023-09-08T05:20:12;9.98;;;6.20;;
73428;SDS011;61643;49.564;17.412;2023-09-08T05:22:38;9.13;;;6.13;;
73428;SDS011;61643;49.564;17.412;2023-09-08T05:25:04;9.38;;;6.20;;
73428;SDS011;61643;49.564;17.412;2023-09-08T05:27:31;9.80;;;5.80;;
73428;SDS011;61643;49.564;17.412;2023-09-08T05:29:57;7.53;;;5.38;;
73428;SDS011;61643;49.564;17.412;2023-09-08T05:32:24;9.40;;;6.03;;
73428;SDS011;61643;49.564;17.412;2023-09-08T05:34:50;9.85;;;6.28;;
73428;SDS011;61643;49.564;17.412;2023-09-08T05:37:16;7.22;;;5.50;;
73428;SDS011;61643;49.564;17.412;2023-09-08T05:39:42;9.05;;;5.90;;
73428;SDS011;61643;49.564;17.412;2023-09-08T05:42:08;8.27;;;5.95;;
73428;SDS011;61643;49.564;17.412;2023-09-08T05:44:34;11.95;;;6.65;;
73428;SDS011;61643;49.564;17.412;2023-09-08T05:47:00;11.20;;;7.25;;
73428;SDS011;61643;49.564;17.412;2023-09-08T05:49:26;9.93;;;6.50;;
73428;SDS011;61643;49.564;17.412;2023-09-08T05:51:52;10.98;;;6.60;;
73428;SDS011;61643;49.564;17.412;2023-09-08T05:54:18;11.55;;;6.70;;
73428;SDS011;61643;49.564;17.412;2023-09-08T05:56:44;8.93;;;6.07;;
73428;SDS011;61643;49.564;17.412;2023-09-08T05:59:10;8.20;;;6.20;;
73428;SDS011;61643;49.564;17.412;2023-09-08T06:01:36;11.60;;;6.97;;
73428;SDS011;61643;49.564;17.412;2023-09-08T06:04:02;11.20;;;6.32;;
73428;SDS011;61643;49.564;17.412;2023-09-08T06:06:28;10.98;;;6.47;;
73428;SDS011;61643;49.564;17.412;2023-09-08T06:08:54;14.95;;;6.40;;
73428;SDS011;61643;49.564;17.412;2023-09-08T06:11:20;10.30;;;6.63;;
73428;SDS011;61643;49.564;17.412;2023-09-08T06:13:46;13.40;;;7.25;;
73428;SDS011;61643;49.564;17.412;2023-09-08T06:16:12;11.43;;;6.75;;
73428;SDS011;61643;49.564;17.412;2023-09-08T06:18:38;10.23;;;7.22;;
73428;SDS011;61643;49.564;17.412;2023-09-08T06:21:09;11.57;;;7.28;;
73428;SDS011;61643;49.564;17.412;2023-09-08T06:23:35;12.57;;;7.75;;
73428;SDS011;61643;49.564;17.412;2023-09-08T06:26:01;15.10;;;7.72;;
73428;SDS011;61643;49.564;17.412;2023-09-08T06:28:27;11.07;;;7.28;;
73428;SDS011;61643;49.564;17.412;2023-09-08T06:30:53;10.63;;;7.10;;
73428;SDS011;61643;49.564;17.412;2023-09-08T06:33:20;12.57;;;6.97;;
73428;SDS011;61643;49.564;17.412;2023-09-08T06:35:47;11.68;;;7.40;;
73428;SDS011;61643;49.564;17.412;2023-09-08T06:38:13;10.80;;;7.03;;
73428;SDS011;61643;49.564;17.412;2023-09-08T06:40:39;13.82;;;7.45;;
73428;SDS011;61643;49.564;17.412;2023-09-08T06:43:05;12.88;;;7.53;;
73428;SDS011;61643;49.564;17.412;2023-09-08T06:45:31;11.20;;;7.35;;
73428;SDS011;61643;49.564;17.412;2023-09-08T06:47:57;11.98;;;6.85;;
73428;SDS011;61643;49.564;17.412;2023-09-08T06:52:51;12.73;;;6.68;;
73428;SDS011;61643;49.564;17.412;2023-09-08T06:55:18;10.10;;;6.40;;
73428;SDS011;61643;49.564;17.412;2023-09-08T06:57:45;9.18;;;6.20;;
73428;SDS011;61643;49.564;17.412;2023-09-08T07:00:12;9.98;;;6.65;;
73428;SDS011;61643;49.564;17.412;2023-09-08T07:02:39;10.23;;;6.32;;
73428;SDS011;61643;49.564;17.412;2023-09-08T07:05:06;9.43;;;6.50;;
73428;SDS011;61643;49.564;17.412;2023-09-08T07:07:34;10.73;;;6.57;;
73428;SDS011;61643;49.564;17.412;2023-09-08T07:10:01;8.85;;;6.18;;
73428;SDS011;61643;49.564;17.412;2023-09-08T07:12:30;8.65;;;5.88;;
73428;SDS011;61643;49.564;17.412;2023-09-08T07:14:56;9.05;;;6.18;;
73428;SDS011;61643;49.564;17.412;2023-09-08T07:17:22;10.82;;;7.05;;
73428;SDS011;61643;49.564;17.412;2023-09-08T07:19:49;12.88;;;7.60;;
73428;SDS011;61643;49.564;17.412;2023-09-08T07:22:15;12.73;;;7.75;;
73428;SDS011;61643;49.564;17.412;2023-09-08T07:24:42;10.10;;;7.45;;
73428;SDS011;61643;49.564;17.412;2023-09-08T07:27:08;12.38;;;7.57;;
73428;SDS011;61643;49.564;17.412;2023-09-08T07:29:34;15.10;;;7.90;;
73428;SDS011;61643;49.564;17.412;2023-09-08T07:31:59;19.00;;;8.27;;
73428;SDS011;61643;49.564;17.412;2023-09-08T07:34:25;14.57;;;8.95;;
73428;SDS011;61643;49.564;17.412;2023-09-08T07:36:51;13.82;;;7.90;;
73428;SDS011;61643;49.564;17.412;2023-09-08T07:39:17;11.90;;;7.10;;
73428;SDS011;61643;49.564;17.412;2023-09-08T07:41:43;13.07;;;8.43;;
73428;SDS011;61643;49.564;17.412;2023-09-08T07:44:09;14.32;;;7.95;;
73428;SDS011;61643;49.564;17.412;2023-09-08T07:46:35;14.20;;;8.32;;
73428;SDS011;61643;49.564;17.412;2023-09-08T07:49:01;13.45;;;8.23;;
73428;SDS011;61643;49.564;17.412;2023-09-08T07:51:27;15.10;;;8.05;;
73428;SDS011;61643;49.564;17.412;2023-09-08T07:53:53;15.75;;;8.57;;
73428;SDS011;61643;49.564;17.412;2023-09-08T07:56:19;11.25;;;7.25;;
73428;SDS011;61643;49.564;17.412;2023-09-08T07:58:45;13.00;;;8.57;;
73428;SDS011;61643;49.564;17.412;2023-09-08T08:01:12;12.70;;;7.13;;
73428;SDS011;61643;49.564;17.412;2023-09-08T08:03:39;12.15;;;8.88;;
73428;SDS011;61643;49.564;17.412;2023-09-08T08:06:05;14.23;;;8.82;;
73428;SDS011;61643;49.564;17.412;2023-09-08T08:08:31;14.10;;;8.95;;
73428;SDS011;61643;49.564;17.412;2023-09-08T08:10:58;15.50;;;9.27;;
73428;SDS011;61643;49.564;17.412;2023-09-08T08:13:25;13.52;;;8.20;;
73428;SDS011;61643;49.564;17.412;2023-09-08T08:15:51;11.93;;;7.93;;
73428;SDS011;61643;49.564;17.412;2023-09-08T08:18:17;13.25;;;8.07;;
73428;SDS011;61643;49.564;17.412;2023-09-08T08:20:43;13.35;;;9.13;;
73428;SDS011;61643;49.564;17.412;2023-09-08T08:23:09;15.63;;;8.52;;
73428;SDS011;61643;49.564;17.412;2023-09-08T08:25:35;12.35;;;7.82;;
73428;SDS011;61643;49.564;17.412;2023-09-08T08:28:01;13.73;;;7.60;;
73428;SDS011;61643;49.564;17.412;2023-09-08T08:30:28;12.38;;;8.52;;
73428;SDS011;61643;49.564;17.412;2023-09-08T08:32:54;13.45;;;7.60;;
73428;SDS011;61643;49.564;17.412;2023-09-08T08:35:20;12.52;;;7.90;;
73428;SDS011;61643;49.564;17.412;2023-09-08T08:37:46;10.00;;;7.10;;
73428;SDS011;61643;49.564;17.412;2023-09-08T08:40:12;9.52;;;6.95;;
73428;SDS011;61643;49.564;17.412;2023-09-08T08:42:39;12.38;;;7.45;;
73428;SDS011;61643;49.564;17.412;2023-09-08T08:45:06;12.73;;;6.97;;
73428;SDS011;61643;49.564;17.412;2023-09-08T08:47:32;10.43;;;6.68;;
73428;SDS011;61643;49.564;17.412;2023-09-08T08:49:59;9.10;;;6.15;;
73428;SDS011;61643;49.564;17.412;2023-09-08T08:52:26;10.57;;;6.40;;
73428;SDS011;61643;49.564;17.412;2023-09-08T08:54:53;8.23;;;5.63;;
73428;SDS011;61643;49.564;17.412;2023-09-08T08:57:23;6.65;;;4.82;;
73428;SDS011;61643;49.564;17.412;2023-09-08T08:59:49;6.80;;;4.35;;
73428;SDS011;61643;49.564;17.412;2023-09-08T09:02:17;11.77;;;5.60;;
73428;SDS011;61643;49.564;17.412;2023-09-08T09:04:44;8.88;;;5.88;;
73428;SDS011;61643;49.564;17.412;2023-09-08T09:07:11;12.75;;;6.03;;
73428;SDS011;61643;49.564;17.412;2023-09-08T09:09:37;8.88;;;5.38;;
73428;SDS011;61643;49.564;17.412;2023-09-08T09:12:05;6.45;;;4.50;;
73428;SDS011;61643;49.564;17.412;2023-09-08T09:14:32;7.38;;;4.95;;
73428;SDS011;61643;49.564;17.412;2023-09-08T09:16:59;11.10;;;5.20;;
73428;SDS011;61643;49.564;17.412;2023-09-08T09:19:26;7.70;;;5.13;;
73428;SDS011;61643;49.564;17.412;2023-09-08T09:21:54;8.85;;;5.15;;
73428;SDS011;61643;49.564;17.412;2023-09-08T09:24:33;8.75;;;5.30;;
73428;SDS011;61643;49.564;17.412;2023-09-08T09:27:06;6.38;;;4.40;;
73428;SDS011;61643;49.564;17.412;2023-09-08T09:29:33;9.20;;;5.30;;
73428;SDS011;61643;49.564;17.412;2023-09-08T09:32:04;8.43;;;5.20;;
73428;SDS011;61643;49.564;17.412;2023-09-08T09:34:31;6.80;;;4.82;;
73428;SDS011;61643;49.564;17.412;2023-09-08T09:36:57;8.45;;;4.20;;
73428;SDS011;61643;49.564;17.412;2023-09-08T09:39:24;6.53;;;3.90;;
73428;SDS011;61643;49.564;17.412;2023-09-08T09:41:54;6.03;;;3.88;;
73428;SDS011;61643;49.564;17.412;2023-09-08T09:44:21;5.47;;;3.97;;
73428;SDS011;61643;49.564;17.412;2023-09-08T09:46:48;5.63;;;4.13;;
73428;SDS011;61643;49.564;17.412;2023-09-08T09:49:16;4.65;;;3.45;;
73428;SDS011;61643;49.564;17.412;2023-09-08T09:51:53;6.28;;;3.58;;
73428;SDS011;61643;49.564;17.412;2023-09-08T09:54:19;6.82;;;3.83;;
73428;SDS011;61643;49.564;17.412;2023-09-08T09:56:45;6.93;;;3.83;;
73428;SDS011;61643;49.564;17.412;2023-09-08T09:59:16;5.30;;;3.70;;
73428;SDS011;61643;49.564;17.412;2023-09-08T10:01:42;4.78;;;3.85;;
73428;SDS011;61643;49.564;17.412;2023-09-08T10:04:08;5.65;;;3.95;;
73428;SDS011;61643;49.564;17.412;2023-09-08T10:06:36;6.32;;;3.90;;
73428;SDS011;61643;49.564;17.412;2023-09-08T10:09:04;5.80;;;3.55;;
73428;SDS011;61643;49.564;17.412;2023-09-08T10:11:35;5.63;;;4.03;;
73428;SDS011;61643;49.564;17.412;2023-09-08T10:14:07;6.30;;;3.97;;
73428;SDS011;61643;49.564;17.412;2023-09-08T10:16:36;4.97;;;3.50;;
73428;SDS011;61643;49.564;17.412;2023-09-08T10:19:08;5.28;;;4.10;;
73428;SDS011;61643;49.564;17.412;2023-09-08T10:21:42;7.10;;;4.13;;
73428;SDS011;61643;49.564;17.412;2023-09-08T10:24:15;5.68;;;3.80;;
73428;SDS011;61643;49.564;17.412;2023-09-08T10:26:51;5.32;;;3.72;;
73428;SDS011;61643;49.564;17.412;2023-09-08T10:29:23;5.95;;;4.10;;
73428;SDS011;61643;49.564;17.412;2023-09-08T10:31:50;6.63;;;3.92;;
73428;SDS011;61643;49.564;17.412;2023-09-08T10:34:16;7.03;;;4.13;;
73428;SDS011;61643;49.564;17.412;2023-09-08T10:36:43;4.97;;;3.50;;
73428;SDS011;61643;49.564;17.412;2023-09-08T10:47:19;7.43;;;3.35;;
73428;SDS011;61643;49.564;17.412;2023-09-08T10:49:45;4.60;;;3.33;;
73428;SDS011;61643;49.564;17.412;2023-09-08T10:52:12;5.82;;;3.40;;
73428;SDS011;61643;49.564;17.412;2023-09-08T10:54:44;6.25;;;3.47;;
73428;SDS011;61643;49.564;17.412;2023-09-08T10:57:16;6.05;;;3.60;;
73428;SDS011;61643;49.564;17.412;2023-09-08T10:59:56;5.57;;;3.35;;
73428;SDS011;61643;49.564;17.412;2023-09-08T11:02:42;6.15;;;3.70;;
73428;SDS011;61643;49.564;17.412;2023-09-08T11:07:41;6.97;;;3.50;;
73428;SDS011;61643;49.564;17.412;2023-09-08T11:10:09;5.20;;;3.40;;
73428;SDS011;61643;49.564;17.412;2023-09-08T11:15:03;7.18;;;3.88;;
73428;SDS011;61643;49.564;17.412;2023-09-08T11:17:31;5.13;;;3.67;;
73428;SDS011;61643;49.564;17.412;2023-09-08T11:19:58;4.00;;;3.17;;
73428;SDS011;61643;49.564;17.412;2023-09-08T11:22:24;5.03;;;3.35;;
73428;SDS011;61643;49.564;17.412;2023-09-08T11:24:51;4.63;;;3.40;;
73428;SDS011;61643;49.564;17.412;2023-09-08T11:27:19;9.02;;;3.80;;
73428;SDS011;61643;49.564;17.412;2023-09-08T11:29:46;7.93;;;3.72;;
73428;SDS011;61643;49.564;17.412;2023-09-08T11:32:13;5.30;;;3.30;;
73428;SDS011;61643;49.564;17.412;2023-09-08T11:34:39;6.55;;;3.55;;
73428;SDS011;61643;49.564;17.412;2023-09-08T11:37:10;6.90;;;3.58;;
73428;SDS011;61643;49.564;17.412;2023-09-08T11:39:45;8.95;;;3.90;;
73428;SDS011;61643;49.564;17.412;2023-09-08T11:42:12;6.50;;;3.75;;
73428;SDS011;61643;49.564;17.412;2023-09-08T11:44:39;7.15;;;3.50;;
73428;SDS011;61643;49.564;17.412;2023-09-08T11:47:08;6.20;;;3.70;;
73428;SDS011;61643;49.564;17.412;2023-09-08T11:49:42;5.30;;;3.40;;
73428;SDS011;61643;49.564;17.412;2023-09-08T11:52:10;6.30;;;3.53;;
73428;SDS011;61643;49.564;17.412;2023-09-08T11:54:36;5.00;;;3.40;;
73428;SDS011;61643;49.564;17.412;2023-09-08T11:59:32;6.20;;;3.45;;
73428;SDS011;61643;49.564;17.412;2023-09-08T12:01:59;6.40;;;3.45;;
73428;SDS011;61643;49.564;17.412;2023-09-08T12:04:26;5.50;;;3.53;;
73428;SDS011;61643;49.564;17.412;2023-09-08T12:06:53;5.32;;;3.50;;
73428;SDS011;61643;49.564;17.412;2023-09-08T12:09:23;6.90;;;3.67;;
73428;SDS011;61643;49.564;17.412;2023-09-08T12:11:49;4.25;;;3.25;;
73428;SDS011;61643;49.564;17.412;2023-09-08T12:14:15;4.68;;;3.72;;
73428;SDS011;61643;49.564;17.412;2023-09-08T12:16:42;5.88;;;3.67;;
73428;SDS011;61643;49.564;17.412;2023-09-08T12:19:08;6.88;;;3.67;;
73428;SDS011;61643;49.564;17.412;2023-09-08T12:21:54;4.70;;;3.47;;
73428;SDS011;61643;49.564;17.412;2023-09-08T12:25:07;4.63;;;3.50;;
73428;SDS011;61643;49.564;17.412;2023-09-08T12:27:15;5.80;;;3.88;;
73428;SDS011;61643;49.564;17.412;2023-09-08T12:30:00;4.78;;;3.80;;
73428;SDS011;61643;49.564;17.412;2023-09-08T12:32:28;6.35;;;3.47;;
73428;SDS011;61643;49.564;17.412;2023-09-08T12:34:58;6.00;;;3.78;;
73428;SDS011;61643;49.564;17.412;2023-09-08T12:37:24;6.03;;;4.22;;
73428;SDS011;61643;49.564;17.412;2023-09-08T12:39:54;6.43;;;3.60;;
73428;SDS011;61643;49.564;17.412;2023-09-08T12:42:21;6.97;;;3.85;;
73428;SDS011;61643;49.564;17.412;2023-09-08T12:44:51;5.60;;;3.60;;
73428;SDS011;61643;49.564;17.412;2023-09-08T12:49:44;7.97;;;3.63;;
73428;SDS011;61643;49.564;17.412;2023-09-08T12:52:10;5.95;;;3.70;;
73428;SDS011;61643;49.564;17.412;2023-09-08T12:54:36;5.03;;;3.58;;
73428;SDS011;61643;49.564;17.412;2023-09-08T12:57:02;5.22;;;3.40;;
73428;SDS011;61643;49.564;17.412;2023-09-08T12:59:28;6.55;;;3.75;;
73428;SDS011;61643;49.564;17.412;2023-09-08T13:01:54;4.65;;;3.60;;
73428;SDS011;61643;49.564;17.412;2023-09-08T13:04:21;5.30;;;3.53;;
73428;SDS011;61643;49.564;17.412;2023-09-08T13:06:48;6.57;;;3.80;;
73428;SDS011;61643;49.564;17.412;2023-09-08T13:09:15;8.25;;;3.72;;
73428;SDS011;61643;49.564;17.412;2023-09-08T13:11:41;6.85;;;3.78;;
73428;SDS011;61643;49.564;17.412;2023-09-08T13:14:08;6.97;;;3.72;;
73428;SDS011;61643;49.564;17.412;2023-09-08T13:16:34;6.38;;;3.60;;
73428;SDS011;61643;49.564;17.412;2023-09-08T13:19:00;5.38;;;3.58;;
73428;SDS011;61643;49.564;17.412;2023-09-08T13:21:26;6.25;;;3.83;;
73428;SDS011;61643;49.564;17.412;2023-09-08T13:23:52;6.38;;;3.63;;
73428;SDS011;61643;49.564;17.412;2023-09-08T13:26:18;5.15;;;3.80;;
73428;SDS011;61643;49.564;17.412;2023-09-08T13:28:44;7.45;;;3.80;;
73428;SDS011;61643;49.564;17.412;2023-09-08T13:31:10;5.25;;;3.35;;
73428;SDS011;61643;49.564;17.412;2023-09-08T13:33:36;6.38;;;3.90;;
73428;SDS011;61643;49.564;17.412;2023-09-08T13:36:02;8.35;;;4.47;;
73428;SDS011;61643;49.564;17.412;2023-09-08T13:38:28;5.20;;;3.20;;
73428;SDS011;61643;49.564;17.412;2023-09-08T13:40:54;5.57;;;3.92;;
73428;SDS011;61643;49.564;17.412;2023-09-08T13:43:20;5.53;;;3.60;;
73428;SDS011;61643;49.564;17.412;2023-09-08T13:45:46;4.63;;;3.60;;
73428;SDS011;61643;49.564;17.412;2023-09-08T13:48:12;6.50;;;3.58;;
73428;SDS011;61643;49.564;17.412;2023-09-08T13:50:38;5.57;;;3.53;;
73428;SDS011;61643;49.564;17.412;2023-09-08T13:53:06;4.90;;;3.78;;
73428;SDS011;61643;49.564;17.412;2023-09-08T13:55:32;5.50;;;3.42;;
73428;SDS011;61643;49.564;17.412;2023-09-08T13:57:58;5.65;;;3.50;;
73428;SDS011;61643;49.564;17.412;2023-09-08T14:00:24;6.88;;;4.22;;
73428;SDS011;61643;49.564;17.412;2023-09-08T14:02:50;6.45;;;4.00;;
73428;SDS011;61643;49.564;17.412;2023-09-08T14:05:16;5.22;;;3.28;;
73428;SDS011;61643;49.564;17.412;2023-09-08T14:07:42;6.30;;;3.53;;
73428;SDS011;61643;49.564;17.412;2023-09-08T14:10:08;5.50;;;3.67;;
73428;SDS011;61643;49.564;17.412;2023-09-08T14:12:35;4.97;;;3.50;;
73428;SDS011;61643;49.564;17.412;2023-09-08T14:15:01;5.57;;;3.55;;
73428;SDS011;61643;49.564;17.412;2023-09-08T14:17:27;6.60;;;3.47;;
73428;SDS011;61643;49.564;17.412;2023-09-08T14:19:53;6.25;;;3.65;;
73428;SDS011;61643;49.564;17.412;2023-09-08T14:22:19;5.47;;;3.55;;
73428;SDS011;61643;49.564;17.412;2023-09-08T14:24:45;5.43;;;3.55;;
73428;SDS011;61643;49.564;17.412;2023-09-08T14:27:11;7.57;;;3.35;;
73428;SDS011;61643;49.564;17.412;2023-09-08T14:29:37;5.10;;;3.28;;
73428;SDS011;61643;49.564;17.412;2023-09-08T14:32:03;5.07;;;3.50;;
73428;SDS011;61643;49.564;17.412;2023-09-08T14:34:29;4.85;;;3.47;;
73428;SDS011;61643;49.564;17.412;2023-09-08T14:36:55;5.45;;;3.47;;
73428;SDS011;61643;49.564;17.412;2023-09-08T14:39:21;6.70;;;3.58;;
73428;SDS011;61643;49.564;17.412;2023-09-08T14:41:48;5.72;;;3.50;;
73428;SDS011;61643;49.564;17.412;2023-09-08T14:44:15;4.28;;;3.20;;
73428;SDS011;61643;49.564;17.412;2023-09-08T14:46:41;7.45;;;3.22;;
73428;SDS011;61643;49.564;17.412;2023-09-08T14:49:07;7.07;;;3.88;;
73428;SDS011;61643;49.564;17.412;2023-09-08T14:51:33;4.45;;;3.63;;
73428;SDS011;61643;49.564;17.412;2023-09-08T14:53:59;7.10;;;3.55;;
73428;SDS011;61643;49.564;17.412;2023-09-08T14:56:25;4.93;;;3.33;;